CheckWX is a tool to help pilots better visualize weather data.  It is not intended as a substitute for an official pre-flight weather briefing.

10:38:21 UTC

WPDL TAF
Presidente Nicolau Lobato International Airport
Dili
TAF WPDL 260649Z 2608/2620 03012KT CAVOK FM261000 15008KT CAVOK

Jun-26@
08:00 UTC

Jun-26 @ 08:00 UTC

Jun-26@
10:00 UTC

Jun-26 @ 10:00 UTC

TAF WPDL 260649Z 2608/2620 03012KT CAVOK

Expired

Wind
  • 030° at 12 KTS
Conditions
No significant weather
Cloud Levels
  • No significant clouds

Jun-26@
10:00 UTC

Jun-26 @ 10:00 UTC

Jun-26@
20:00 UTC

Jun-26 @ 20:00 UTC

FM261000 15008KT CAVOK

From

From Standard forecast or significant change

Wind
  • 150° at 8 KTS
Conditions
No significant weather
Cloud Levels
  • No significant clouds